Time;durP1;ratioP1;P1;durP2;ratioP2;P2;SDS_P1;SDS_P2;PMS_P1;PMS_P2;Temp;Humidity;BMP_temperature;BMP_pressure;BME280_temperature;BME280_humidity;BME280_pressure;Samples;Min_cycle;Max_cycle;Signal;HPM_P1;HPM_P2
2022/03/31 04:01:10;;;;;;;22.80;20.50;;;7.10;99.90;;;;;;5588322;23;20573;-63
2022/03/31 04:03:37;;;;;;;21.27;19.10;;;7.00;99.90;;;;;;4976788;28;20513;-64
2022/03/31 04:06:03;;;;;;;23.17;21.00;;;7.10;99.90;;;;;;4976464;28;20825;-63
2022/03/31 04:08:30;;;;;;;20.27;18.13;;;7.10;99.90;;;;;;4977454;28;20451;-64
2022/03/31 04:10:57;;;;;;;24.63;22.13;;;7.00;99.90;;;;;;4977973;28;20491;-65
2022/03/31 04:13:23;;;;;;;23.33;20.93;;;7.00;99.90;;;;;;4976266;28;20459;-64
2022/03/31 04:15:50;;;;;;;21.70;19.50;;;7.00;99.90;;;;;;4976279;28;20455;-63
2022/03/31 04:18:18;;;;;;;23.10;20.70;;;7.10;99.90;;;;;;4976146;28;20475;-64
2022/03/31 04:20:45;;;;;;;23.83;21.47;;;7.00;99.90;;;;;;4976012;28;20478;-65
2022/03/31 04:23:12;;;;;;;24.10;21.67;;;6.90;99.90;;;;;;4976276;28;20455;-65
2022/03/31 04:25:38;;;;;;;22.83;20.53;;;6.90;99.90;;;;;;4976395;28;20466;-64
2022/03/31 04:28:06;;;;;;;23.27;20.97;;;6.90;99.90;;;;;;4976427;28;20862;-64
2022/03/31 04:30:33;;;;;;;22.73;20.53;;;6.90;99.90;;;;;;4982296;28;20508;-64
2022/03/31 04:33:00;;;;;;;23.63;21.27;;;6.90;99.90;;;;;;4984656;28;20531;-64
2022/03/31 04:35:29;;;;;;;23.63;21.03;;;7.00;99.90;;;;;;4976244;28;20459;-64
2022/03/31 04:37:56;;;;;;;24.57;22.17;;;7.00;99.90;;;;;;4978670;28;20475;-64
2022/03/31 04:40:23;;;;;;;22.97;20.67;;;7.00;99.90;;;;;;4987099;28;20515;-65
2022/03/31 04:42:49;;;;;;;23.97;21.47;;;6.90;99.90;;;;;;4987610;28;20482;-65
2022/03/31 04:45:16;;;;;;;23.53;21.13;;;6.90;99.90;;;;;;4987823;28;20455;-65
2022/03/31 04:47:43;;;;;;;23.40;21.10;;;6.90;99.90;;;;;;4977702;28;20462;-65
2022/03/31 04:50:10;;;;;;;23.27;20.87;;;7.00;99.90;;;;;;4978975;28;20481;-66
2022/03/31 04:52:38;;;;;;;22.60;20.20;;;7.00;99.90;;;;;;4977069;28;20462;-65
2022/03/31 04:55:06;;;;;;;23.60;20.77;;;7.00;99.90;;;;;;4975814;28;20942;-64
2022/03/31 04:57:33;;;;;;;22.60;20.37;;;7.00;99.90;;;;;;4975740;28;20474;-64
2022/03/31 04:59:59;;;;;;;23.30;21.00;;;7.00;99.90;;;;;;4976052;28;20462;-64
2022/03/31 05:02:26;;;;;;;21.63;18.73;;;7.00;99.90;;;;;;4976161;28;20489;-65
2022/03/31 05:04:53;;;;;;;23.10;20.70;;;7.00;99.90;;;;;;4976039;28;20443;-64
2022/03/31 05:07:19;;;;;;;22.30;20.00;;;7.00;99.90;;;;;;4976139;28;20451;-64
2022/03/31 05:09:48;;;;;;;22.70;20.43;;;6.90;99.90;;;;;;4975898;28;20946;-65
2022/03/31 05:12:15;;;;;;;24.80;22.50;;;6.90;99.90;;;;;;4975803;28;20561;-65
2022/03/31 05:14:42;;;;;;;21.67;19.47;;;6.70;99.90;;;;;;4975894;28;20455;-64
2022/03/31 05:17:10;;;;;;;22.83;20.63;;;6.70;99.90;;;;;;4976038;28;20539;-65
2022/03/31 05:19:37;;;;;;;23.93;21.53;;;6.70;99.90;;;;;;4979245;28;20462;-64
2022/03/31 05:22:04;;;;;;;24.47;21.43;;;6.60;99.90;;;;;;4983186;28;20506;-63
2022/03/31 05:24:31;;;;;;;25.07;22.57;;;6.60;99.90;;;;;;4990503;28;20457;-65
2022/03/31 05:26:59;;;;;;;24.37;21.87;;;6.60;99.90;;;;;;4979900;28;20464;-65
2022/03/31 05:29:26;;;;;;;23.37;20.97;;;6.50;99.90;;;;;;4980096;28;20974;-64
2022/03/31 05:31:53;;;;;;;25.67;23.17;;;6.50;99.90;;;;;;4979746;28;20481;-64
2022/03/31 05:34:21;;;;;;;25.03;22.50;;;6.50;99.90;;;;;;4979230;28;20498;-65
2022/03/31 05:36:48;;;;;;;25.10;22.40;;;6.50;99.90;;;;;;4979310;28;20477;-64
2022/03/31 05:39:16;;;;;;;24.83;21.63;;;6.50;99.90;;;;;;4978537;28;20482;-65
2022/03/31 05:41:42;;;;;;;24.33;21.83;;;6.50;99.90;;;;;;4982635;28;20474;-65
2022/03/31 05:44:11;;;;;;;24.23;21.70;;;6.40;99.90;;;;;;4980172;28;20450;-64
2022/03/31 05:46:39;;;;;;;25.07;22.53;;;6.40;99.90;;;;;;4977941;28;20458;-64
2022/03/31 05:49:06;;;;;;;26.57;23.77;;;6.40;99.90;;;;;;4979268;28;20435;-65
2022/03/31 05:51:33;;;;;;;24.03;21.63;;;6.40;99.90;;;;;;4981733;28;20485;-66
2022/03/31 05:54:01;;;;;;;24.30;21.93;;;6.60;99.90;;;;;;4981372;28;20470;-65
2022/03/31 05:56:27;;;;;;;25.50;22.90;;;6.60;99.90;;;;;;4981335;28;20458;-64
2022/03/31 05:58:54;;;;;;;25.57;22.83;;;6.70;99.90;;;;;;4980934;28;20471;-64
2022/03/31 06:01:22;;;;;;;24.67;22.10;;;6.70;99.90;;;;;;4980766;28;20486;-63
2022/03/31 06:03:49;;;;;;;24.87;20.93;;;6.70;99.90;;;;;;4980456;28;20455;-65
2022/03/31 06:06:16;;;;;;;23.70;21.20;;;6.80;99.90;;;;;;4980369;28;20458;-64
2022/03/31 06:08:42;;;;;;;26.70;22.20;;;6.90;99.90;;;;;;4979731;28;20451;-64
2022/03/31 06:11:09;;;;;;;25.70;23.00;;;6.90;99.90;;;;;;4979375;28;20482;-65
2022/03/31 06:13:36;;;;;;;24.63;21.30;;;6.90;99.90;;;;;;4980334;28;20463;-64
2022/03/31 06:16:03;;;;;;;25.43;22.87;;;6.90;99.90;;;;;;4979594;28;20481;-64
2022/03/31 06:18:31;;;;;;;24.57;22.10;;;6.80;99.90;;;;;;4979805;28;20537;-64
2022/03/31 06:20:58;;;;;;;23.73;21.13;;;6.80;99.90;;;;;;4979615;28;20475;-65
2022/03/31 06:23:25;;;;;;;25.60;22.90;;;6.90;99.90;;;;;;4979926;28;20455;-64
2022/03/31 06:25:53;;;;;;;25.60;22.80;;;6.80;99.90;;;;;;4979550;28;20549;-64
2022/03/31 06:28:20;;;;;;;24.67;22.17;;;6.80;99.90;;;;;;4979708;28;20458;-65
2022/03/31 06:30:47;;;;;;;23.60;21.23;;;6.80;99.90;;;;;;4979760;28;20478;-64
2022/03/31 06:33:15;;;;;;;25.73;23.23;;;6.80;99.90;;;;;;4979714;28;20509;-64
2022/03/31 06:35:43;;;;;;;25.30;22.53;;;6.90;99.90;;;;;;4979853;28;20575;-66
2022/03/31 06:38:11;;;;;;;25.73;23.03;;;7.00;99.90;;;;;;4979471;28;20479;-63
2022/03/31 06:40:40;;;;;;;25.47;22.77;;;7.00;99.90;;;;;;4979512;28;20482;-64
2022/03/31 06:43:07;;;;;;;27.20;23.03;;;7.00;99.90;;;;;;4979179;28;20517;-64
2022/03/31 06:45:34;;;;;;;25.67;23.00;;;7.10;99.90;;;;;;4979065;28;20463;-64
2022/03/31 06:48:03;;;;;;;25.20;22.50;;;7.00;99.90;;;;;;4979321;28;20480;-64
2022/03/31 06:50:32;;;;;;;25.70;22.90;;;7.10;99.90;;;;;;4980065;28;20479;-63
2022/03/31 06:53:00;;;;;;;24.53;21.93;;;7.10;99.90;;;;;;4979387;28;20546;-65
2022/03/31 06:55:28;;;;;;;23.13;20.13;;;7.10;99.90;;;;;;4983242;28;20546;-64
2022/03/31 06:57:54;;;;;;;26.20;23.37;;;7.20;99.90;;;;;;4982740;28;20483;-64
2022/03/31 07:00:21;;;;;;;22.73;20.13;;;7.20;99.90;;;;;;4978699;28;20455;-65
2022/03/31 07:02:48;;;;;;;26.43;21.30;;;7.20;99.90;;;;;;4979079;28;20490;-64
2022/03/31 07:05:15;;;;;;;26.73;21.40;;;7.20;99.90;;;;;;4978698;28;21070;-66
2022/03/31 07:07:41;;;;;;;23.23;20.67;;;7.20;99.90;;;;;;4978312;28;20466;-64
2022/03/31 07:10:11;;;;;;;24.97;22.40;;;7.20;99.90;;;;;;4977963;28;20463;-64
2022/03/31 07:12:39;;;;;;;23.90;21.30;;;7.20;99.90;;;;;;4979094;28;20465;-64
2022/03/31 07:15:07;;;;;;;29.40;23.77;;;7.10;99.90;;;;;;4978324;28;21025;-64
2022/03/31 07:17:34;;;;;;;25.70;22.97;;;7.10;99.90;;;;;;4978175;28;20458;-67
2022/03/31 07:20:00;;;;;;;26.40;23.60;;;7.20;99.90;;;;;;4978223;28;20469;-64
2022/03/31 07:22:27;;;;;;;28.90;20.63;;;7.20;99.90;;;;;;4977432;28;20479;-66
2022/03/31 07:24:54;;;;;;;24.70;21.87;;;7.20;99.90;;;;;;4978434;28;20454;-65
2022/03/31 07:27:22;;;;;;;27.03;24.13;;;7.30;99.90;;;;;;4978710;28;20463;-65
2022/03/31 07:29:49;;;;;;;24.30;20.80;;;7.40;99.90;;;;;;4978303;28;20458;-66
2022/03/31 07:32:16;;;;;;;23.80;21.30;;;7.50;99.90;;;;;;4978582;28;20490;-66
2022/03/31 07:34:43;;;;;;;24.33;21.80;;;7.60;99.90;;;;;;4978956;28;20454;-64
2022/03/31 07:37:09;;;;;;;23.17;19.97;;;7.70;99.90;;;;;;4977331;28;20455;-66
2022/03/31 07:39:38;;;;;;;24.80;20.73;;;7.80;99.90;;;;;;4977701;28;20566;-64
2022/03/31 07:42:06;;;;;;;23.33;20.93;;;7.70;99.90;;;;;;4978790;28;20479;-64
2022/03/31 07:44:34;;;;;;;26.60;23.73;;;7.80;99.90;;;;;;4979995;28;20461;-64
2022/03/31 07:47:01;;;;;;;23.90;19.80;;;7.90;99.90;;;;;;4978133;28;20459;-65
2022/03/31 07:49:27;;;;;;;23.33;19.33;;;7.90;99.90;;;;;;4977538;28;20451;-65
2022/03/31 07:51:54;;;;;;;23.37;20.67;;;8.00;99.90;;;;;;4979663;28;20824;-64
2022/03/31 07:54:21;;;;;;;25.00;22.40;;;8.10;99.90;;;;;;4982971;28;20952;-65
2022/03/31 07:56:49;;;;;;;23.80;21.20;;;8.10;99.90;;;;;;4978175;28;20459;-65
2022/03/31 07:59:20;;;;;;;24.63;20.87;;;8.10;99.90;;;;;;4977831;28;20506;-65
2022/03/31 08:01:48;;;;;;;24.63;22.03;;;8.00;99.90;;;;;;4985044;28;20499;-64
2022/03/31 08:04:16;;;;;;;21.73;19.40;;;8.00;99.90;;;;;;4984319;28;20454;-64
2022/03/31 08:06:43;;;;;;;26.50;21.80;;;8.10;99.90;;;;;;4976947;28;20980;-64
2022/03/31 08:09:12;;;;;;;25.20;20.93;;;8.10;99.90;;;;;;4976400;28;20553;-64
2022/03/31 08:11:39;;;;;;;22.13;19.33;;;8.20;99.90;;;;;;4975761;28;20479;-64
2022/03/31 08:14:06;;;;;;;22.03;18.77;;;8.20;99.90;;;;;;4976535;28;20459;-65
2022/03/31 08:16:33;;;;;;;24.60;21.80;;;8.20;99.90;;;;;;4976577;28;20459;-64
2022/03/31 08:19:01;;;;;;;24.37;21.97;;;8.30;99.90;;;;;;4976721;28;20482;-65
2022/03/31 08:21:28;;;;;;;24.83;22.30;;;8.40;99.90;;;;;;4976229;28;20479;-64
2022/03/31 08:23:55;;;;;;;22.53;20.23;;;8.50;99.90;;;;;;4976091;28;20812;-64
2022/03/31 08:26:22;;;;;;;23.10;20.57;;;8.50;99.90;;;;;;4975619;28;20459;-64
2022/03/31 08:28:49;;;;;;;25.83;20.27;;;8.60;99.90;;;;;;4975847;28;20964;-65
2022/03/31 08:31:15;;;;;;;25.90;21.27;;;8.60;99.90;;;;;;4975905;28;20474;-63
2022/03/31 08:33:42;;;;;;;23.70;20.37;;;8.70;99.90;;;;;;4975996;28;20483;-64
2022/03/31 08:36:10;;;;;;;22.63;20.17;;;8.80;99.90;;;;;;4976827;28;20454;-64
2022/03/31 08:38:37;;;;;;;22.93;20.43;;;8.80;99.90;;;;;;4975933;28;20479;-65
2022/03/31 08:41:04;;;;;;;24.93;21.43;;;8.80;99.90;;;;;;4976338;28;20482;-64
2022/03/31 08:43:33;;;;;;;21.67;19.37;;;9.00;99.90;;;;;;4976207;28;20481;-64
2022/03/31 08:45:59;;;;;;;22.77;20.37;;;9.10;99.90;;;;;;4975824;28;20958;-64
2022/03/31 08:48:27;;;;;;;25.93;20.13;;;9.10;99.90;;;;;;4975871;28;20526;-64
2022/03/31 08:50:54;;;;;;;24.37;21.60;;;9.20;99.90;;;;;;4975739;28;20529;-64
2022/03/31 08:53:22;;;;;;;23.77;20.43;;;9.20;99.90;;;;;;4981429;28;20455;-65
2022/03/31 08:55:48;;;;;;;23.07;20.57;;;9.00;99.90;;;;;;4983399;28;20797;-65
2022/03/31 08:58:15;;;;;;;26.60;22.47;;;9.00;99.90;;;;;;4978686;28;20459;-64
2022/03/31 09:00:43;;;;;;;22.20;19.77;;;9.00;99.90;;;;;;4975690;28;20517;-64
2022/03/31 09:03:10;;;;;;;24.10;21.43;;;9.00;99.90;;;;;;4976135;28;20557;-64
2022/03/31 09:05:38;;;;;;;25.77;20.20;;;9.10;99.90;;;;;;4976007;28;20558;-64
2022/03/31 09:08:09;;;;;;;24.40;21.70;;;9.20;99.90;;;;;;4975656;28;20545;-64
2022/03/31 09:10:39;;;;;;;25.17;20.50;;;9.10;99.90;;;;;;4975638;28;21001;-63
2022/03/31 09:13:18;;;;;;;25.53;21.30;;;9.10;99.90;;;;;;4974887;28;20938;-64
2022/03/31 09:15:50;;;;;;;23.33;20.70;;;9.00;99.90;;;;;;4975325;28;20443;-64
2022/03/31 09:18:19;;;;;;;25.70;22.67;;;9.10;99.90;;;;;;4975045;28;20447;-64
2022/03/31 09:20:46;;;;;;;24.10;21.30;;;9.00;99.90;;;;;;4975011;28;20474;-66
2022/03/31 09:23:17;;;;;;;23.83;20.63;;;9.00;99.90;;;;;;4976735;28;20454;-64
2022/03/31 09:25:46;;;;;;;23.17;20.17;;;9.00;99.90;;;;;;4979522;28;20505;-64
2022/03/31 09:28:15;;;;;;;25.60;21.03;;;9.00;99.90;;;;;;4979254;28;20561;-64
2022/03/31 09:30:47;;;;;;;23.00;20.50;;;9.00;99.90;;;;;;4978965;28;20799;-64
2022/03/31 09:33:29;;;;;;;27.90;22.27;;;9.10;99.90;;;;;;4978800;28;20822;-65
2022/03/31 09:36:04;;;;;;;23.97;21.37;;;9.20;99.90;;;;;;4978952;28;20533;-64
2022/03/31 09:38:35;;;;;;;24.17;21.67;;;9.30;99.90;;;;;;4979178;28;20442;-64
2022/03/31 09:41:05;;;;;;;23.87;21.30;;;9.40;99.90;;;;;;4978850;28;20512;-64
2022/03/31 09:43:41;;;;;;;25.67;23.13;;;9.60;99.90;;;;;;4979254;28;20973;-64
2022/03/31 09:46:18;;;;;;;24.10;21.10;;;9.70;99.90;;;;;;4979409;28;20454;-65
2022/03/31 09:48:45;;;;;;;22.40;20.00;;;9.80;99.90;;;;;;4980179;28;20471;-64
2022/03/31 09:51:13;;;;;;;22.50;20.10;;;9.90;99.90;;;;;;4979737;28;20555;-64
2022/03/31 09:53:41;;;;;;;25.63;22.93;;;10.00;99.90;;;;;;4979141;28;20461;-64
2022/03/31 09:56:09;;;;;;;24.27;21.80;;;10.20;99.90;;;;;;4978290;28;20949;-65
2022/03/31 09:58:39;;;;;;;24.37;19.77;;;10.50;99.90;;;;;;4978508;28;20463;-64
2022/03/31 10:01:06;;;;;;;24.13;21.43;;;10.80;99.90;;;;;;4978854;28;20491;-65
2022/03/31 10:03:34;;;;;;;23.47;21.07;;;11.10;99.90;;;;;;4978943;28;20466;-65
2022/03/31 10:06:02;;;;;;;23.90;21.50;;;11.40;99.90;;;;;;4979478;28;20521;-65
2022/03/31 10:08:34;;;;;;;22.33;19.93;;;11.80;99.90;;;;;;4980747;28;20819;-64
2022/03/31 10:11:01;;;;;;;21.70;19.50;;;12.10;99.90;;;;;;4981877;28;20486;-65
2022/03/31 10:13:36;;;;;;;23.17;20.83;;;12.20;99.90;;;;;;4983682;28;20447;-64
2022/03/31 10:16:08;;;;;;;22.50;20.40;;;12.20;99.90;;;;;;4983723;28;20442;-65
2022/03/31 10:18:35;;;;;;;23.07;20.80;;;12.00;99.90;;;;;;4978722;28;20485;-65
2022/03/31 10:21:03;;;;;;;22.17;19.93;;;11.90;99.90;;;;;;4979328;28;20885;-64
2022/03/31 10:26:24;;;;;;;21.67;19.40;;;12.10;99.90;;;;;;4980225;28;20551;-64
2022/03/31 10:28:58;;;;;;;20.90;18.73;;;12.10;99.90;;;;;;4990942;28;20475;-64
2022/03/31 10:31:35;;;;;;;22.13;19.93;;;12.10;99.90;;;;;;4980014;28;20474;-64
2022/03/31 10:34:02;;;;;;;22.93;20.63;;;12.20;99.90;;;;;;4978344;28;20475;-64
2022/03/31 10:36:38;;;;;;;20.70;18.70;;;12.30;99.90;;;;;;4977070;28;20459;-64
2022/03/31 10:39:07;;;;;;;21.87;19.63;;;12.40;99.90;;;;;;4977819;28;20509;-66
2022/03/31 10:41:35;;;;;;;21.03;19.03;;;12.70;99.90;;;;;;4978920;28;20486;-65
2022/03/31 10:44:15;;;;;;;21.37;19.27;;;13.00;99.90;;;;;;4977865;28;20459;-64
2022/03/31 10:46:44;;;;;;;21.97;19.80;;;13.30;99.90;;;;;;4977787;28;20439;-64
2022/03/31 10:49:14;;;;;;;21.23;19.10;;;13.30;99.90;;;;;;4979427;28;20527;-64
2022/03/31 10:51:42;;;;;;;21.20;19.00;;;13.30;99.90;;;;;;4977569;28;20475;-64
2022/03/31 10:54:11;;;;;;;19.50;17.60;;;13.10;99.90;;;;;;4977704;28;20462;-64
2022/03/31 10:56:40;;;;;;;20.33;17.73;;;13.20;99.90;;;;;;4977371;28;20972;-64
2022/03/31 10:59:08;;;;;;;20.70;18.73;;;13.20;99.90;;;;;;4978457;28;20478;-64
2022/03/31 11:01:36;;;;;;;21.57;19.47;;;13.20;99.90;;;;;;4977317;28;20482;-65
2022/03/31 11:04:05;;;;;;;21.77;19.63;;;13.20;99.90;;;;;;4977571;28;20466;-65
2022/03/31 11:06:32;;;;;;;21.97;19.87;;;13.20;99.90;;;;;;4977695;28;20497;-66
2022/03/31 11:08:58;;;;;;;21.07;19.07;;;13.00;99.90;;;;;;4977706;28;20459;-65
2022/03/31 11:11:28;;;;;;;21.70;19.47;;;12.90;99.90;;;;;;4977338;28;20986;-65
2022/03/31 11:13:56;;;;;;;20.93;18.90;;;12.80;99.90;;;;;;4977577;28;20459;-65
2022/03/31 11:16:24;;;;;;;21.67;19.57;;;12.50;99.90;;;;;;4977473;28;20455;-66
2022/03/31 11:18:55;;;;;;;22.17;19.87;;;12.50;99.90;;;;;;4978187;28;20435;-66
2022/03/31 11:21:23;;;;;;;21.90;19.60;;;12.40;99.90;;;;;;4977408;28;20489;-65
2022/03/31 11:23:50;;;;;;;21.00;19.00;;;12.30;99.90;;;;;;4976894;28;20973;-66
2022/03/31 11:26:25;;;;;;;20.57;18.53;;;12.40;99.90;;;;;;4976964;28;20946;-66
2022/03/31 11:28:52;;;;;;;20.67;18.67;;;12.50;99.90;;;;;;4977403;28;20779;-65
2022/03/31 11:31:20;;;;;;;20.27;18.25;;;12.60;99.90;;;;;;4977421;28;20509;-65
2022/03/31 11:33:48;;;;;;;22.25;20.15;;;12.70;99.90;;;;;;4975961;28;20462;-65
2022/03/31 11:36:17;;;;;;;22.70;20.70;;;12.70;99.90;;;;;;4978403;28;20295;-67
2022/03/31 11:38:54;;;;;;;22.10;20.00;;;12.70;99.90;;;;;;4979086;28;20465;-65
2022/03/31 11:41:21;;;;;;;22.33;20.03;;;12.70;99.90;;;;;;4977600;28;21110;-65
2022/03/31 11:43:48;;;;;;;21.80;19.60;;;12.60;99.90;;;;;;4978092;28;20469;-69
2022/03/31 11:46:15;;;;;;;20.10;18.30;;;12.40;99.90;;;;;;4976971;28;20955;-67
2022/03/31 11:48:41;;;;;;;21.53;19.43;;;12.50;99.90;;;;;;4978496;28;20670;-67
2022/03/31 11:51:10;;;;;;;20.67;18.40;;;12.70;99.90;;;;;;4978171;28;20471;-68
2022/03/31 11:53:40;;;;;;;20.20;18.20;;;12.80;99.90;;;;;;4977858;28;20462;-67
2022/03/31 11:56:10;;;;;;;21.93;19.70;;;12.80;99.90;;;;;;4977569;28;20459;-67
2022/03/31 11:58:45;;;;;;;22.10;19.90;;;12.90;99.90;;;;;;4977554;28;20538;-67
2022/03/31 12:01:13;;;;;;;20.60;18.57;;;12.80;99.90;;;;;;4976784;28;20518;-66
2022/03/31 12:03:40;;;;;;;21.83;19.53;;;12.80;99.90;;;;;;4976962;28;20455;-66
2022/03/31 12:06:10;;;;;;;21.30;17.40;;;12.60;99.90;;;;;;4982482;28;20458;-67
2022/03/31 12:08:38;;;;;;;20.93;18.70;;;12.60;99.90;;;;;;4980817;28;20965;-66
2022/03/31 12:11:06;;;;;;;21.20;19.00;;;12.60;99.90;;;;;;4977017;28;20474;-66
2022/03/31 12:13:33;;;;;;;20.33;18.17;;;12.70;99.90;;;;;;4979179;28;20942;-68
2022/03/31 12:16:05;;;;;;;22.83;19.60;;;12.70;99.90;;;;;;4977908;28;20962;-66
2022/03/31 12:18:34;;;;;;;16.90;15.20;;;12.70;99.90;;;;;;4977997;28;20458;-67
2022/03/31 12:21:02;;;;;;;20.47;18.47;;;12.80;99.90;;;;;;4983256;28;20487;-66
2022/03/31 12:23:30;;;;;;;19.40;17.60;;;13.00;99.90;;;;;;4984350;28;20968;-66
2022/03/31 12:25:57;;;;;;;20.00;18.07;;;13.20;99.90;;;;;;4982770;28;20455;-67
2022/03/31 12:28:25;;;;;;;20.97;18.70;;;13.30;99.90;;;;;;4984495;28;21042;-67
2022/03/31 12:30:54;;;;;;;20.60;18.40;;;13.30;99.90;;;;;;4981439;28;20491;-66
2022/03/31 12:33:26;;;;;;;20.77;18.70;;;13.40;99.90;;;;;;4979796;28;20459;-67
2022/03/31 12:36:03;;;;;;;18.67;16.77;;;13.40;99.90;;;;;;4978622;28;20466;-67
2022/03/31 12:38:40;;;;;;;21.30;19.10;;;13.40;99.90;;;;;;4978620;28;20438;-65
2022/03/31 12:41:19;;;;;;;23.30;20.90;;;13.40;99.90;;;;;;4980164;28;20493;-66
2022/03/31 12:44:04;;;;;;;19.70;17.77;;;13.20;99.90;;;;;;4977542;28;20438;-66
2022/03/31 12:46:32;;;;;;;19.87;17.97;;;13.10;99.90;;;;;;4977071;28;20454;-66
2022/03/31 12:49:04;;;;;;;17.93;16.13;;;13.00;99.90;;;;;;4978171;28;20462;-66
2022/03/31 12:51:44;;;;;;;21.33;19.23;;;12.90;99.90;;;;;;4977471;28;20479;-67
2022/03/31 12:54:27;;;;;;;21.07;18.93;;;12.80;99.90;;;;;;4977469;28;20446;-66
2022/03/31 12:56:55;;;;;;;19.80;17.80;;;12.70;99.90;;;;;;4976513;28;20964;-65
2022/03/31 12:59:24;;;;;;;23.33;21.00;;;12.50;99.90;;;;;;4976885;28;20566;-65
2022/03/31 13:02:00;;;;;;;22.43;19.23;;;12.30;99.90;;;;;;4976736;28;20501;-65
2022/03/31 13:04:27;;;;;;;20.10;18.10;;;12.20;99.90;;;;;;4977215;28;20482;-66
2022/03/31 13:06:54;;;;;;;23.00;19.87;;;12.00;99.90;;;;;;4977477;28;20461;-66
2022/03/31 13:09:21;;;;;;;20.73;18.40;;;11.80;99.90;;;;;;4977844;28;20451;-66
2022/03/31 13:11:51;;;;;;;21.50;19.40;;;11.60;99.90;;;;;;4988613;28;21021;-66
2022/03/31 13:14:20;;;;;;;20.70;18.60;;;11.60;99.90;;;;;;4980553;28;20853;-65
2022/03/31 13:16:46;;;;;;;20.30;18.20;;;11.60;99.90;;;;;;4976520;28;20491;-65
2022/03/31 13:19:13;;;;;;;22.33;20.03;;;11.50;99.90;;;;;;4977311;28;20462;-65
2022/03/31 13:21:40;;;;;;;25.80;21.00;;;11.50;99.90;;;;;;4977688;28;20546;-66
2022/03/31 13:24:07;;;;;;;20.93;18.73;;;11.40;99.90;;;;;;4978109;28;20461;-66
2022/03/31 13:26:36;;;;;;;24.07;21.47;;;11.30;99.90;;;;;;4976770;28;20459;-66
2022/03/31 13:29:05;;;;;;;23.03;20.67;;;11.30;99.90;;;;;;4976584;28;20541;-66
2022/03/31 13:31:32;;;;;;;22.93;20.53;;;11.30;99.90;;;;;;4976439;28;20479;-66
2022/03/31 13:33:59;;;;;;;25.30;20.80;;;11.10;99.90;;;;;;4976545;28;20465;-65
2022/03/31 13:36:27;;;;;;;22.10;19.80;;;11.00;99.90;;;;;;4976326;28;20513;-66
2022/03/31 13:38:54;;;;;;;22.90;20.40;;;11.00;99.90;;;;;;4975701;28;20455;-63
2022/03/31 13:41:22;;;;;;;23.20;20.70;;;10.90;99.90;;;;;;4975739;28;20490;-64
2022/03/31 13:43:49;;;;;;;24.20;20.70;;;10.80;99.90;;;;;;4976305;28;20587;-64
2022/03/31 13:46:18;;;;;;;24.30;21.30;;;10.80;99.90;;;;;;4976052;28;20459;-65
2022/03/31 13:48:45;;;;;;;23.30;20.60;;;10.70;99.90;;;;;;4975613;28;20466;-64
2022/03/31 13:51:11;;;;;;;23.40;20.90;;;10.70;99.90;;;;;;4976029;28;20482;-65
2022/03/31 13:53:45;;;;;;;23.80;20.77;;;10.50;99.90;;;;;;4976673;28;20539;-65
2022/03/31 13:56:12;;;;;;;26.07;22.53;;;10.60;99.90;;;;;;4976557;28;20444;-64
2022/03/31 14:01:25;;;;;;;30.63;23.93;;;10.40;99.90;;;;;;4975133;28;20481;-64
2022/03/31 14:03:54;;;;;;;25.77;22.43;;;10.40;99.90;;;;;;4975374;28;20855;-65
2022/03/31 14:06:23;;;;;;;30.90;22.40;;;10.40;99.90;;;;;;4976315;28;20466;-65
2022/03/31 14:08:50;;;;;;;27.50;24.13;;;10.40;99.90;;;;;;4975422;28;20443;-65
2022/03/31 14:11:18;;;;;;;27.23;22.13;;;10.50;99.90;;;;;;4977565;28;20561;-65
2022/03/31 14:13:45;;;;;;;27.03;23.90;;;10.50;99.90;;;;;;4978429;28;20486;-65
2022/03/31 14:16:11;;;;;;;30.50;23.10;;;10.50;99.90;;;;;;4978049;28;20461;-65
2022/03/31 14:18:44;;;;;;;29.27;24.77;;;10.60;99.90;;;;;;4978037;28;20475;-64
2022/03/31 14:21:12;;;;;;;29.40;24.20;;;10.60;99.90;;;;;;4978402;28;20483;-65
2022/03/31 14:23:39;;;;;;;31.80;24.70;;;10.60;99.90;;;;;;4980109;28;20483;-65
2022/03/31 14:26:07;;;;;;;27.63;24.63;;;10.60;99.90;;;;;;4978998;28;20513;-64
2022/03/31 14:28:37;;;;;;;29.33;24.23;;;10.60;99.90;;;;;;4979085;28;20439;-64
2022/03/31 14:31:05;;;;;;;28.03;23.37;;;10.60;99.90;;;;;;4977730;28;20553;-64
2022/03/31 14:33:32;;;;;;;31.57;24.10;;;10.60;99.90;;;;;;4978942;28;20459;-65
2022/03/31 14:36:01;;;;;;;31.53;22.90;;;10.60;99.90;;;;;;4979216;28;20455;-64
2022/03/31 14:38:28;;;;;;;27.33;23.60;;;10.50;99.90;;;;;;4980243;28;20463;-64
2022/03/31 14:40:55;;;;;;;29.50;24.37;;;10.50;99.90;;;;;;4979052;28;20482;-64
2022/03/31 14:43:23;;;;;;;30.97;25.17;;;10.50;99.90;;;;;;4979199;28;20553;-65
2022/03/31 14:45:50;;;;;;;28.40;22.33;;;10.50;99.90;;;;;;4978199;28;20466;-64
2022/03/31 14:48:17;;;;;;;30.90;24.73;;;10.40;99.90;;;;;;4978019;28;20466;-64
2022/03/31 14:50:44;;;;;;;28.30;24.00;;;10.40;99.90;;;;;;4978302;28;20979;-64
2022/03/31 14:53:13;;;;;;;29.10;23.27;;;10.40;99.90;;;;;;4978187;28;20549;-65
2022/03/31 14:55:41;;;;;;;27.90;24.37;;;10.30;99.90;;;;;;4978526;28;20462;-64
2022/03/31 14:58:08;;;;;;;29.90;24.23;;;10.30;99.90;;;;;;4977339;28;20462;-65
2022/03/31 15:00:35;;;;;;;32.53;24.37;;;10.20;99.90;;;;;;4977194;28;20479;-64
2022/03/31 15:03:02;;;;;;;30.73;23.20;;;10.10;99.90;;;;;;4977293;28;20907;-64
2022/03/31 15:05:29;;;;;;;31.10;24.17;;;10.10;99.90;;;;;;4977922;28;20462;-64
2022/03/31 15:07:58;;;;;;;30.13;24.17;;;10.10;99.90;;;;;;4978107;28;20510;-64
2022/03/31 15:15:55;;;;;;;31.17;24.33;;;9.80;99.90;;;;;;4977735;28;20418;-65
2022/03/31 15:18:22;;;;;;;32.60;23.50;;;9.80;99.90;;;;;;4977125;28;20950;-65
2022/03/31 15:20:49;;;;;;;33.10;25.90;;;9.80;99.90;;;;;;4977554;28;20846;-66
2022/03/31 15:23:16;;;;;;;30.27;25.00;;;9.70;99.90;;;;;;4977438;28;20451;-65
2022/03/31 15:25:44;;;;;;;33.30;25.10;;;9.70;99.90;;;;;;4977236;28;20481;-65
2022/03/31 15:28:11;;;;;;;32.90;25.30;;;9.70;99.90;;;;;;4977584;28;20566;-64
2022/03/31 15:30:38;;;;;;;31.00;25.30;;;9.70;99.90;;;;;;4977963;28;20479;-64
2022/03/31 15:33:05;;;;;;;32.90;24.30;;;9.70;99.90;;;;;;4983610;28;20459;-65
2022/03/31 15:35:32;;;;;;;30.63;24.50;;;9.60;99.90;;;;;;4988738;28;20455;-66
2022/03/31 15:37:58;;;;;;;31.97;24.97;;;9.50;99.90;;;;;;4989817;28;20477;-66
2022/03/31 15:40:26;;;;;;;33.73;24.60;;;9.50;99.90;;;;;;4985620;28;21012;-63
2022/03/31 15:42:54;;;;;;;32.70;23.73;;;9.40;99.90;;;;;;4979646;28;20455;-64
2022/03/31 15:45:21;;;;;;;27.73;23.67;;;9.50;99.90;;;;;;4978795;28;20454;-65
2022/03/31 15:48:08;;;;;;;34.37;24.60;;;9.40;99.90;;;;;;4977820;28;20459;-65
2022/03/31 15:50:35;;;;;;;29.97;22.87;;;9.40;99.90;;;;;;4976762;28;20800;-64
2022/03/31 15:53:02;;;;;;;29.47;24.80;;;9.50;99.90;;;;;;4978459;28;20459;-65
2022/03/31 15:55:31;;;;;;;31.23;26.33;;;9.60;99.90;;;;;;4979911;28;20458;-65
2022/03/31 15:57:59;;;;;;;31.80;25.03;;;9.60;99.90;;;;;;4976808;28;20934;-65
2022/03/31 16:00:27;;;;;;;32.03;26.63;;;9.60;99.90;;;;;;4977608;28;20459;-65
2022/03/31 16:02:53;;;;;;;28.83;23.93;;;9.60;99.90;;;;;;4979294;28;20443;-65
2022/03/31 16:05:21;;;;;;;27.73;23.47;;;9.60;99.90;;;;;;4983217;28;20455;-65
2022/03/31 16:07:48;;;;;;;29.90;23.37;;;9.50;99.90;;;;;;4983562;28;20459;-65
2022/03/31 16:10:18;;;;;;;30.23;24.87;;;9.50;99.90;;;;;;4981425;28;20454;-64
2022/03/31 16:12:45;;;;;;;30.17;23.53;;;9.50;99.90;;;;;;4980278;28;20463;-65
2022/03/31 16:15:16;;;;;;;28.50;23.97;;;9.40;99.90;;;;;;4978863;28;20439;-65
2022/03/31 16:17:42;;;;;;;31.70;24.87;;;9.50;99.90;;;;;;4978863;28;20448;-65
2022/03/31 16:20:10;;;;;;;28.23;23.40;;;9.50;99.90;;;;;;4978657;28;20459;-66
2022/03/31 16:22:37;;;;;;;29.13;23.87;;;9.40;99.90;;;;;;4978411;28;20482;-64
2022/03/31 16:25:04;;;;;;;31.80;23.67;;;9.30;99.90;;;;;;4977163;28;20459;-64
2022/03/31 16:27:31;;;;;;;30.40;24.77;;;9.30;99.90;;;;;;4976741;28;20466;-64
2022/03/31 16:29:58;;;;;;;29.73;24.17;;;9.30;99.90;;;;;;4976148;28;20949;-64
2022/03/31 16:32:26;;;;;;;35.57;26.97;;;9.30;99.90;;;;;;4975678;28;20471;-65
2022/03/31 16:34:53;;;;;;;33.43;24.50;;;9.40;99.90;;;;;;4975991;28;20907;-65
2022/03/31 16:37:20;;;;;;;32.50;23.10;;;9.30;99.90;;;;;;4976353;28;20957;-66
2022/03/31 16:39:47;;;;;;;28.00;22.87;;;9.30;99.90;;;;;;4976333;28;20938;-65
2022/03/31 16:42:14;;;;;;;31.27;23.63;;;9.20;99.90;;;;;;4976191;28;20479;-64
2022/03/31 16:44:41;;;;;;;30.10;22.57;;;9.10;99.90;;;;;;4975731;28;20462;-65
2022/03/31 16:47:08;;;;;;;27.30;22.20;;;9.10;99.90;;;;;;4975533;28;20463;-65
2022/03/31 16:49:36;;;;;;;25.17;20.37;;;9.30;99.90;;;;;;4975126;28;20459;-64